sensor_id;sensor_type;location;lat;lon;timestamp;P1;durP1;ratioP1;P2;durP2;ratioP2
12224;SDS011;6175;50.956;11.064;2022-08-02T00:00:34;2.53;;;2.08;;
12224;SDS011;6175;50.956;11.064;2022-08-02T00:03:01;1.73;;;1.63;;
12224;SDS011;6175;50.956;11.064;2022-08-02T00:05:28;1.80;;;1.70;;
12224;SDS011;6175;50.956;11.064;2022-08-02T00:07:55;2.72;;;2.25;;
12224;SDS011;6175;50.956;11.064;2022-08-02T00:10:22;2.15;;;1.95;;
12224;SDS011;6175;50.956;11.064;2022-08-02T00:12:49;2.33;;;2.13;;
12224;SDS011;6175;50.956;11.064;2022-08-02T00:15:19;2.00;;;1.90;;
12224;SDS011;6175;50.956;11.064;2022-08-02T00:17:45;2.30;;;2.20;;
12224;SDS011;6175;50.956;11.064;2022-08-02T00:20:12;2.42;;;1.98;;
12224;SDS011;6175;50.956;11.064;2022-08-02T00:22:39;1.90;;;1.80;;
12224;SDS011;6175;50.956;11.064;2022-08-02T00:25:07;1.88;;;1.77;;
12224;SDS011;6175;50.956;11.064;2022-08-02T00:27:34;1.88;;;1.77;;
12224;SDS011;6175;50.956;11.064;2022-08-02T00:30:01;2.00;;;1.90;;
12224;SDS011;6175;50.956;11.064;2022-08-02T00:32:30;2.30;;;2.08;;
12224;SDS011;6175;50.956;11.064;2022-08-02T00:34:57;2.75;;;2.13;;
12224;SDS011;6175;50.956;11.064;2022-08-02T00:37:24;2.13;;;2.03;;
12224;SDS011;6175;50.956;11.064;2022-08-02T00:39:51;2.28;;;2.10;;
12224;SDS011;6175;50.956;11.064;2022-08-02T00:42:17;2.00;;;1.90;;
12224;SDS011;6175;50.956;11.064;2022-08-02T00:44:44;2.28;;;2.15;;
12224;SDS011;6175;50.956;11.064;2022-08-02T00:47:12;1.92;;;1.83;;
12224;SDS011;6175;50.956;11.064;2022-08-02T00:49:40;2.00;;;1.90;;
12224;SDS011;6175;50.956;11.064;2022-08-02T00:52:07;2.55;;;2.35;;
12224;SDS011;6175;50.956;11.064;2022-08-02T00:54:34;2.20;;;2.00;;
12224;SDS011;6175;50.956;11.064;2022-08-02T00:57:01;2.30;;;2.10;;
12224;SDS011;6175;50.956;11.064;2022-08-02T00:59:28;1.92;;;1.83;;
12224;SDS011;6175;50.956;11.064;2022-08-02T01:01:55;2.10;;;2.00;;
12224;SDS011;6175;50.956;11.064;2022-08-02T01:04:22;1.92;;;1.80;;
12224;SDS011;6175;50.956;11.064;2022-08-02T01:06:51;2.40;;;2.20;;
12224;SDS011;6175;50.956;11.064;2022-08-02T01:09:18;2.70;;;2.50;;
12224;SDS011;6175;50.956;11.064;2022-08-02T01:11:45;2.63;;;2.42;;
12224;SDS011;6175;50.956;11.064;2022-08-02T01:14:12;2.30;;;2.10;;
12224;SDS011;6175;50.956;11.064;2022-08-02T01:16:42;2.42;;;2.22;;
12224;SDS011;6175;50.956;11.064;2022-08-02T01:19:17;2.50;;;2.30;;
12224;SDS011;6175;50.956;11.064;2022-08-02T01:25:20;2.58;;;2.22;;
12224;SDS011;6175;50.956;11.064;2022-08-02T01:28:05;2.28;;;1.95;;
12224;SDS011;6175;50.956;11.064;2022-08-02T01:30:38;2.38;;;2.22;;
12224;SDS011;6175;50.956;11.064;2022-08-02T01:33:07;2.08;;;1.98;;
12224;SDS011;6175;50.956;11.064;2022-08-02T01:35:39;2.33;;;2.10;;
12224;SDS011;6175;50.956;11.064;2022-08-02T01:38:10;2.78;;;2.47;;
12224;SDS011;6175;50.956;11.064;2022-08-02T01:40:45;2.38;;;2.28;;
12224;SDS011;6175;50.956;11.064;2022-08-02T01:43:16;2.53;;;2.33;;
12224;SDS011;6175;50.956;11.064;2022-08-02T01:45:43;2.33;;;2.13;;
12224;SDS011;6175;50.956;11.064;2022-08-02T01:48:11;2.63;;;2.42;;
12224;SDS011;6175;50.956;11.064;2022-08-02T01:50:40;3.25;;;2.20;;
12224;SDS011;6175;50.956;11.064;2022-08-02T01:53:09;2.35;;;2.20;;
12224;SDS011;6175;50.956;11.064;2022-08-02T01:55:40;2.72;;;2.15;;
12224;SDS011;6175;50.956;11.064;2022-08-02T01:58:10;2.20;;;2.10;;
12224;SDS011;6175;50.956;11.064;2022-08-02T02:00:41;2.30;;;2.10;;
12224;SDS011;6175;50.956;11.064;2022-08-02T02:03:09;2.60;;;2.40;;
12224;SDS011;6175;50.956;11.064;2022-08-02T02:05:39;2.47;;;2.28;;
12224;SDS011;6175;50.956;11.064;2022-08-02T02:08:08;2.72;;;2.42;;
12224;SDS011;6175;50.956;11.064;2022-08-02T02:10:35;2.45;;;2.25;;
12224;SDS011;6175;50.956;11.064;2022-08-02T02:13:05;2.45;;;2.25;;
12224;SDS011;6175;50.956;11.064;2022-08-02T02:15:34;2.45;;;2.35;;
12224;SDS011;6175;50.956;11.064;2022-08-02T02:18:10;2.30;;;2.20;;
12224;SDS011;6175;50.956;11.064;2022-08-02T02:20:40;2.40;;;2.20;;
12224;SDS011;6175;50.956;11.064;2022-08-02T02:23:07;2.45;;;2.35;;
12224;SDS011;6175;50.956;11.064;2022-08-02T02:25:35;2.85;;;2.65;;
12224;SDS011;6175;50.956;11.064;2022-08-02T02:28:03;2.28;;;2.17;;
12224;SDS011;6175;50.956;11.064;2022-08-02T02:30:32;2.13;;;2.03;;
12224;SDS011;6175;50.956;11.064;2022-08-02T02:33:01;2.40;;;2.30;;
12224;SDS011;6175;50.956;11.064;2022-08-02T02:35:31;2.85;;;2.13;;
12224;SDS011;6175;50.956;11.064;2022-08-02T02:38:02;2.50;;;2.30;;
12224;SDS011;6175;50.956;11.064;2022-08-02T02:40:31;2.60;;;2.40;;
12224;SDS011;6175;50.956;11.064;2022-08-02T02:42:58;3.13;;;2.92;;
12224;SDS011;6175;50.956;11.064;2022-08-02T02:45:26;2.97;;;2.78;;
12224;SDS011;6175;50.956;11.064;2022-08-02T02:47:56;5.00;;;3.22;;
12224;SDS011;6175;50.956;11.064;2022-08-02T02:50:27;2.58;;;2.38;;
12224;SDS011;6175;50.956;11.064;2022-08-02T02:52:55;2.58;;;2.38;;
12224;SDS011;6175;50.956;11.064;2022-08-02T02:55:23;2.90;;;2.70;;
12224;SDS011;6175;50.956;11.064;2022-08-02T02:57:50;2.60;;;2.40;;
12224;SDS011;6175;50.956;11.064;2022-08-02T03:00:18;2.53;;;2.33;;
12224;SDS011;6175;50.956;11.064;2022-08-02T03:03:06;2.60;;;2.40;;
12224;SDS011;6175;50.956;11.064;2022-08-02T03:05:35;2.35;;;2.25;;
12224;SDS011;6175;50.956;11.064;2022-08-02T03:08:02;2.50;;;2.30;;
12224;SDS011;6175;50.956;11.064;2022-08-02T03:10:29;2.53;;;2.33;;
12224;SDS011;6175;50.956;11.064;2022-08-02T03:12:56;2.65;;;2.38;;
12224;SDS011;6175;50.956;11.064;2022-08-02T03:15:25;2.38;;;2.17;;
12224;SDS011;6175;50.956;11.064;2022-08-02T03:17:53;2.40;;;2.20;;
12224;SDS011;6175;50.956;11.064;2022-08-02T03:20:20;2.90;;;2.70;;
12224;SDS011;6175;50.956;11.064;2022-08-02T03:22:49;2.35;;;2.22;;
12224;SDS011;6175;50.956;11.064;2022-08-02T03:25:16;2.58;;;2.38;;
12224;SDS011;6175;50.956;11.064;2022-08-02T03:27:43;2.70;;;2.50;;
12224;SDS011;6175;50.956;11.064;2022-08-02T03:30:11;2.67;;;2.47;;
12224;SDS011;6175;50.956;11.064;2022-08-02T03:32:40;2.70;;;2.50;;
12224;SDS011;6175;50.956;11.064;2022-08-02T03:35:10;2.75;;;2.55;;
12224;SDS011;6175;50.956;11.064;2022-08-02T03:37:40;2.30;;;2.10;;
12224;SDS011;6175;50.956;11.064;2022-08-02T03:40:09;2.75;;;2.55;;
12224;SDS011;6175;50.956;11.064;2022-08-02T03:42:38;2.88;;;2.67;;
12224;SDS011;6175;50.956;11.064;2022-08-02T03:45:07;2.80;;;2.60;;
12224;SDS011;6175;50.956;11.064;2022-08-02T03:47:36;2.72;;;2.53;;
12224;SDS011;6175;50.956;11.064;2022-08-02T03:50:05;2.67;;;2.47;;
12224;SDS011;6175;50.956;11.064;2022-08-02T03:52:33;2.97;;;2.70;;
12224;SDS011;6175;50.956;11.064;2022-08-02T03:55:01;2.95;;;2.75;;
12224;SDS011;6175;50.956;11.064;2022-08-02T03:57:29;2.88;;;2.60;;
12224;SDS011;6175;50.956;11.064;2022-08-02T03:59:56;3.05;;;2.75;;
12224;SDS011;6175;50.956;11.064;2022-08-02T04:02:23;3.65;;;2.78;;
12224;SDS011;6175;50.956;11.064;2022-08-02T04:04:51;3.20;;;2.90;;
12224;SDS011;6175;50.956;11.064;2022-08-02T04:07:17;2.90;;;2.70;;
12224;SDS011;6175;50.956;11.064;2022-08-02T04:09:44;2.55;;;2.35;;
12224;SDS011;6175;50.956;11.064;2022-08-02T04:12:11;2.92;;;2.63;;
12224;SDS011;6175;50.956;11.064;2022-08-02T04:14:40;2.72;;;2.53;;
12224;SDS011;6175;50.956;11.064;2022-08-02T04:17:08;3.10;;;2.90;;
12224;SDS011;6175;50.956;11.064;2022-08-02T04:19:36;2.70;;;2.50;;
12224;SDS011;6175;50.956;11.064;2022-08-02T04:22:06;3.58;;;2.90;;
12224;SDS011;6175;50.956;11.064;2022-08-02T04:24:37;2.90;;;2.70;;
12224;SDS011;6175;50.956;11.064;2022-08-02T04:27:06;2.80;;;2.60;;
12224;SDS011;6175;50.956;11.064;2022-08-02T04:29:34;3.30;;;3.05;;
12224;SDS011;6175;50.956;11.064;2022-08-02T04:32:04;3.00;;;2.80;;
12224;SDS011;6175;50.956;11.064;2022-08-02T04:34:32;3.08;;;2.88;;
12224;SDS011;6175;50.956;11.064;2022-08-02T04:36:59;3.40;;;3.10;;
12224;SDS011;6175;50.956;11.064;2022-08-02T04:39:27;3.10;;;2.90;;
12224;SDS011;6175;50.956;11.064;2022-08-02T04:41:54;3.50;;;3.20;;
12224;SDS011;6175;50.956;11.064;2022-08-02T04:44:21;2.92;;;2.70;;
12224;SDS011;6175;50.956;11.064;2022-08-02T04:46:49;3.67;;;3.38;;
12224;SDS011;6175;50.956;11.064;2022-08-02T04:49:18;5.85;;;5.25;;
12224;SDS011;6175;50.956;11.064;2022-08-02T04:51:44;9.13;;;8.32;;
12224;SDS011;6175;50.956;11.064;2022-08-02T04:54:12;14.90;;;13.70;;
12224;SDS011;6175;50.956;11.064;2022-08-02T04:56:39;18.45;;;17.02;;
12224;SDS011;6175;50.956;11.064;2022-08-02T04:59:06;23.55;;;21.52;;
12224;SDS011;6175;50.956;11.064;2022-08-02T05:01:34;27.20;;;25.00;;
12224;SDS011;6175;50.956;11.064;2022-08-02T05:04:01;28.20;;;26.08;;
12224;SDS011;6175;50.956;11.064;2022-08-02T05:06:29;26.90;;;24.90;;
12224;SDS011;6175;50.956;11.064;2022-08-02T05:08:59;19.73;;;18.25;;
12224;SDS011;6175;50.956;11.064;2022-08-02T05:11:25;12.43;;;11.43;;
12224;SDS011;6175;50.956;11.064;2022-08-02T05:13:52;9.00;;;8.23;;
12224;SDS011;6175;50.956;11.064;2022-08-02T05:16:19;7.40;;;6.75;;
12224;SDS011;6175;50.956;11.064;2022-08-02T05:18:47;5.65;;;5.25;;
12224;SDS011;6175;50.956;11.064;2022-08-02T05:21:15;4.38;;;4.05;;
12224;SDS011;6175;50.956;11.064;2022-08-02T05:23:43;4.95;;;4.55;;
12224;SDS011;6175;50.956;11.064;2022-08-02T05:26:10;4.60;;;4.20;;
12224;SDS011;6175;50.956;11.064;2022-08-02T05:28:38;3.83;;;3.53;;
12224;SDS011;6175;50.956;11.064;2022-08-02T05:31:05;3.95;;;3.58;;
12224;SDS011;6175;50.956;11.064;2022-08-02T05:33:32;3.65;;;3.30;;
12224;SDS011;6175;50.956;11.064;2022-08-02T05:35:59;3.20;;;2.90;;
12224;SDS011;6175;50.956;11.064;2022-08-02T05:38:26;3.92;;;3.63;;
12224;SDS011;6175;50.956;11.064;2022-08-02T05:40:57;4.10;;;3.60;;
12224;SDS011;6175;50.956;11.064;2022-08-02T05:43:24;3.92;;;3.63;;
12224;SDS011;6175;50.956;11.064;2022-08-02T05:45:51;4.55;;;4.15;;
12224;SDS011;6175;50.956;11.064;2022-08-02T05:48:19;4.25;;;3.38;;
12224;SDS011;6175;50.956;11.064;2022-08-02T05:50:48;3.95;;;3.53;;
12224;SDS011;6175;50.956;11.064;2022-08-02T05:53:18;4.03;;;3.63;;
12224;SDS011;6175;50.956;11.064;2022-08-02T05:55:54;4.43;;;4.03;;
12224;SDS011;6175;50.956;11.064;2022-08-02T05:58:30;4.45;;;4.07;;
12224;SDS011;6175;50.956;11.064;2022-08-02T06:01:03;4.43;;;4.03;;
12224;SDS011;6175;50.956;11.064;2022-08-02T06:03:34;3.85;;;3.55;;
12224;SDS011;6175;50.956;11.064;2022-08-02T06:06:05;3.90;;;3.60;;
12224;SDS011;6175;50.956;11.064;2022-08-02T06:08:37;4.15;;;3.75;;
12224;SDS011;6175;50.956;11.064;2022-08-02T06:11:09;3.90;;;3.60;;
12224;SDS011;6175;50.956;11.064;2022-08-02T06:13:38;4.22;;;3.92;;
12224;SDS011;6175;50.956;11.064;2022-08-02T06:16:06;5.00;;;4.28;;
12224;SDS011;6175;50.956;11.064;2022-08-02T06:18:33;4.97;;;4.47;;
12224;SDS011;6175;50.956;11.064;2022-08-02T06:21:01;5.32;;;4.93;;
12224;SDS011;6175;50.956;11.064;2022-08-02T06:23:30;3.97;;;3.55;;
12224;SDS011;6175;50.956;11.064;2022-08-02T06:25:58;4.07;;;3.67;;
12224;SDS011;6175;50.956;11.064;2022-08-02T06:28:27;5.40;;;4.38;;
12224;SDS011;6175;50.956;11.064;2022-08-02T06:30:56;4.35;;;3.95;;
12224;SDS011;6175;50.956;11.064;2022-08-02T06:33:24;4.72;;;3.67;;
12224;SDS011;6175;50.956;11.064;2022-08-02T06:35:53;4.82;;;4.18;;
12224;SDS011;6175;50.956;11.064;2022-08-02T06:38:26;5.55;;;4.10;;
12224;SDS011;6175;50.956;11.064;2022-08-02T06:40:59;4.50;;;3.30;;
12224;SDS011;6175;50.956;11.064;2022-08-02T06:43:33;5.03;;;4.07;;
12224;SDS011;6175;50.956;11.064;2022-08-02T06:46:06;4.43;;;3.78;;
12224;SDS011;6175;50.956;11.064;2022-08-02T06:48:33;3.58;;;3.08;;
12224;SDS011;6175;50.956;11.064;2022-08-02T06:51:01;3.22;;;3.03;;
12224;SDS011;6175;50.956;11.064;2022-08-02T06:53:28;3.75;;;2.90;;
12224;SDS011;6175;50.956;11.064;2022-08-02T06:55:55;3.08;;;2.60;;
12224;SDS011;6175;50.956;11.064;2022-08-02T06:58:23;3.33;;;3.03;;
12224;SDS011;6175;50.956;11.064;2022-08-02T07:00:51;3.10;;;2.80;;
12224;SDS011;6175;50.956;11.064;2022-08-02T07:03:19;3.90;;;3.10;;
12224;SDS011;6175;50.956;11.064;2022-08-02T07:05:46;2.85;;;2.60;;
12224;SDS011;6175;50.956;11.064;2022-08-02T07:08:13;3.75;;;2.70;;
12224;SDS011;6175;50.956;11.064;2022-08-02T07:10:41;3.78;;;3.00;;
12224;SDS011;6175;50.956;11.064;2022-08-02T07:13:08;4.10;;;3.25;;
12224;SDS011;6175;50.956;11.064;2022-08-02T07:15:36;3.88;;;3.17;;
12224;SDS011;6175;50.956;11.064;2022-08-02T07:18:05;6.65;;;3.08;;
12224;SDS011;6175;50.956;11.064;2022-08-02T07:20:37;2.63;;;2.42;;
12224;SDS011;6175;50.956;11.064;2022-08-02T07:23:04;3.55;;;3.10;;
12224;SDS011;6175;50.956;11.064;2022-08-02T07:25:31;4.32;;;3.17;;
12224;SDS011;6175;50.956;11.064;2022-08-02T07:27:59;3.90;;;2.72;;
12224;SDS011;6175;50.956;11.064;2022-08-02T07:30:26;4.32;;;3.00;;
12224;SDS011;6175;50.956;11.064;2022-08-02T07:32:54;3.13;;;2.58;;
12224;SDS011;6175;50.956;11.064;2022-08-02T07:35:22;3.72;;;2.97;;
12224;SDS011;6175;50.956;11.064;2022-08-02T07:37:49;5.10;;;2.70;;
12224;SDS011;6175;50.956;11.064;2022-08-02T07:40:18;4.20;;;2.78;;
12224;SDS011;6175;50.956;11.064;2022-08-02T07:42:46;3.80;;;3.00;;
12224;SDS011;6175;50.956;11.064;2022-08-02T07:45:16;4.72;;;2.83;;
12224;SDS011;6175;50.956;11.064;2022-08-02T07:47:43;4.28;;;3.40;;
12224;SDS011;6175;50.956;11.064;2022-08-02T07:50:11;3.53;;;2.92;;
12224;SDS011;6175;50.956;11.064;2022-08-02T07:52:43;3.80;;;2.85;;
12224;SDS011;6175;50.956;11.064;2022-08-02T07:55:11;3.88;;;3.20;;
12224;SDS011;6175;50.956;11.064;2022-08-02T07:57:39;3.53;;;2.63;;
12224;SDS011;6175;50.956;11.064;2022-08-02T08:00:07;5.72;;;2.80;;
12224;SDS011;6175;50.956;11.064;2022-08-02T08:02:35;3.33;;;2.90;;
12224;SDS011;6175;50.956;11.064;2022-08-02T08:05:02;4.82;;;3.00;;
12224;SDS011;6175;50.956;11.064;2022-08-02T08:07:30;4.18;;;2.40;;
12224;SDS011;6175;50.956;11.064;2022-08-02T08:10:00;5.38;;;2.97;;
12224;SDS011;6175;50.956;11.064;2022-08-02T08:12:27;4.15;;;2.75;;
12224;SDS011;6175;50.956;11.064;2022-08-02T08:14:54;3.55;;;2.88;;
12224;SDS011;6175;50.956;11.064;2022-08-02T08:17:21;4.05;;;2.65;;
12224;SDS011;6175;50.956;11.064;2022-08-02T08:19:49;5.45;;;2.75;;
12224;SDS011;6175;50.956;11.064;2022-08-02T08:22:15;3.40;;;2.38;;
12224;SDS011;6175;50.956;11.064;2022-08-02T08:24:42;7.32;;;2.90;;
12224;SDS011;6175;50.956;11.064;2022-08-02T08:27:11;4.05;;;2.72;;
12224;SDS011;6175;50.956;11.064;2022-08-02T08:29:39;5.03;;;3.03;;
12224;SDS011;6175;50.956;11.064;2022-08-02T08:32:07;4.15;;;2.90;;
12224;SDS011;6175;50.956;11.064;2022-08-02T08:34:34;4.93;;;2.67;;
12224;SDS011;6175;50.956;11.064;2022-08-02T08:37:01;3.08;;;2.30;;
12224;SDS011;6175;50.956;11.064;2022-08-02T08:39:28;3.35;;;2.28;;
12224;SDS011;6175;50.956;11.064;2022-08-02T08:41:56;3.08;;;2.67;;
12224;SDS011;6175;50.956;11.064;2022-08-02T08:44:24;4.38;;;2.50;;
12224;SDS011;6175;50.956;11.064;2022-08-02T08:46:52;4.90;;;2.70;;
12224;SDS011;6175;50.956;11.064;2022-08-02T08:49:22;3.25;;;2.70;;
12224;SDS011;6175;50.956;11.064;2022-08-02T08:51:52;2.85;;;2.50;;
12224;SDS011;6175;50.956;11.064;2022-08-02T08:54:23;3.15;;;2.40;;
12224;SDS011;6175;50.956;11.064;2022-08-02T08:56:53;3.13;;;2.50;;
12224;SDS011;6175;50.956;11.064;2022-08-02T08:59:22;3.60;;;2.25;;
12224;SDS011;6175;50.956;11.064;2022-08-02T09:01:50;3.28;;;2.10;;
12224;SDS011;6175;50.956;11.064;2022-08-02T09:04:19;2.53;;;2.33;;
12224;SDS011;6175;50.956;11.064;2022-08-02T09:06:46;3.80;;;2.30;;
12224;SDS011;6175;50.956;11.064;2022-08-02T09:09:13;3.17;;;2.50;;
12224;SDS011;6175;50.956;11.064;2022-08-02T09:11:42;2.53;;;2.33;;
12224;SDS011;6175;50.956;11.064;2022-08-02T09:14:09;2.40;;;2.20;;
12224;SDS011;6175;50.956;11.064;2022-08-02T09:16:37;3.60;;;1.95;;
12224;SDS011;6175;50.956;11.064;2022-08-02T09:19:19;3.25;;;2.58;;
12224;SDS011;6175;50.956;11.064;2022-08-02T09:21:48;5.97;;;2.95;;
12224;SDS011;6175;50.956;11.064;2022-08-02T09:24:16;4.22;;;2.33;;
12224;SDS011;6175;50.956;11.064;2022-08-02T09:26:44;2.55;;;2.10;;
12224;SDS011;6175;50.956;11.064;2022-08-02T09:29:12;2.53;;;2.20;;
12224;SDS011;6175;50.956;11.064;2022-08-02T09:31:40;4.38;;;2.25;;
12224;SDS011;6175;50.956;11.064;2022-08-02T09:34:08;2.60;;;2.35;;
12224;SDS011;6175;50.956;11.064;2022-08-02T09:36:37;2.15;;;1.90;;
12224;SDS011;6175;50.956;11.064;2022-08-02T09:39:07;2.00;;;1.90;;
12224;SDS011;6175;50.956;11.064;2022-08-02T09:41:36;2.47;;;2.15;;
12224;SDS011;6175;50.956;11.064;2022-08-02T09:44:05;2.22;;;2.03;;
12224;SDS011;6175;50.956;11.064;2022-08-02T09:46:35;3.75;;;2.63;;
12224;SDS011;6175;50.956;11.064;2022-08-02T09:49:03;2.10;;;1.90;;
12224;SDS011;6175;50.956;11.064;2022-08-02T09:51:33;2.65;;;2.40;;
12224;SDS011;6175;50.956;11.064;2022-08-02T09:54:04;3.13;;;2.30;;
12224;SDS011;6175;50.956;11.064;2022-08-02T09:56:39;2.28;;;1.90;;
12224;SDS011;6175;50.956;11.064;2022-08-02T09:59:08;2.25;;;2.05;;
12224;SDS011;6175;50.956;11.064;2022-08-02T10:01:37;3.47;;;2.30;;
12224;SDS011;6175;50.956;11.064;2022-08-02T10:04:05;2.22;;;2.00;;
12224;SDS011;6175;50.956;11.064;2022-08-02T10:06:34;3.05;;;2.13;;
12224;SDS011;6175;50.956;11.064;2022-08-02T10:09:02;3.63;;;2.45;;
12224;SDS011;6175;50.956;11.064;2022-08-02T10:11:30;4.35;;;2.05;;
12224;SDS011;6175;50.956;11.064;2022-08-02T10:13:59;2.58;;;2.00;;
12224;SDS011;6175;50.956;11.064;2022-08-02T10:16:29;2.65;;;2.08;;
12224;SDS011;6175;50.956;11.064;2022-08-02T10:18:56;2.13;;;1.90;;
12224;SDS011;6175;50.956;11.064;2022-08-02T10:21:26;3.22;;;2.00;;
12224;SDS011;6175;50.956;11.064;2022-08-02T10:23:59;2.97;;;1.90;;
12224;SDS011;6175;50.956;11.064;2022-08-02T10:26:33;1.80;;;1.70;;
12224;SDS011;6175;50.956;11.064;2022-08-02T10:29:01;2.60;;;2.20;;
12224;SDS011;6175;50.956;11.064;2022-08-02T10:31:31;1.73;;;1.63;;
12224;SDS011;6175;50.956;11.064;2022-08-02T10:34:02;2.05;;;1.85;;
12224;SDS011;6175;50.956;11.064;2022-08-02T10:36:31;1.85;;;1.75;;
12224;SDS011;6175;50.956;11.064;2022-08-02T10:39:01;1.90;;;1.80;;
12224;SDS011;6175;50.956;11.064;2022-08-02T10:41:43;2.00;;;1.80;;
12224;SDS011;6175;50.956;11.064;2022-08-02T10:44:21;2.63;;;1.60;;
12224;SDS011;6175;50.956;11.064;2022-08-02T10:46:49;1.92;;;1.77;;
12224;SDS011;6175;50.956;11.064;2022-08-02T10:49:17;1.83;;;1.73;;
12224;SDS011;6175;50.956;11.064;2022-08-02T10:52:04;2.47;;;1.80;;
12224;SDS011;6175;50.956;11.064;2022-08-02T10:54:33;1.73;;;1.63;;
12224;SDS011;6175;50.956;11.064;2022-08-02T10:57:12;1.73;;;1.60;;
12224;SDS011;6175;50.956;11.064;2022-08-02T10:59:40;3.20;;;1.67;;
12224;SDS011;6175;50.956;11.064;2022-08-02T11:02:08;4.30;;;1.80;;
12224;SDS011;6175;50.956;11.064;2022-08-02T11:07:31;1.73;;;1.60;;
12224;SDS011;6175;50.956;11.064;2022-08-02T11:13:03;1.92;;;1.80;;
12224;SDS011;6175;50.956;11.064;2022-08-02T11:15:46;1.60;;;1.50;;
12224;SDS011;6175;50.956;11.064;2022-08-02T11:18:19;1.52;;;1.38;;
12224;SDS011;6175;50.956;11.064;2022-08-02T11:20:47;1.75;;;1.65;;
12224;SDS011;6175;50.956;11.064;2022-08-02T11:23:48;2.00;;;1.50;;
12224;SDS011;6175;50.956;11.064;2022-08-02T11:29:09;1.98;;;1.60;;
12224;SDS011;6175;50.956;11.064;2022-08-02T11:31:37;1.58;;;1.48;;
12224;SDS011;6175;50.956;11.064;2022-08-02T11:34:05;1.70;;;1.50;;
12224;SDS011;6175;50.956;11.064;2022-08-02T11:36:41;1.50;;;1.40;;
12224;SDS011;6175;50.956;11.064;2022-08-02T11:39:09;1.52;;;1.40;;
12224;SDS011;6175;50.956;11.064;2022-08-02T11:41:36;1.90;;;1.80;;
12224;SDS011;6175;50.956;11.064;2022-08-02T11:44:03;1.95;;;1.60;;
12224;SDS011;6175;50.956;11.064;2022-08-02T11:46:30;1.80;;;1.33;;
12224;SDS011;6175;50.956;11.064;2022-08-02T11:49:01;2.78;;;1.58;;
12224;SDS011;6175;50.956;11.064;2022-08-02T11:51:39;2.03;;;1.70;;
12224;SDS011;6175;50.956;11.064;2022-08-02T11:54:23;2.13;;;1.90;;
12224;SDS011;6175;50.956;11.064;2022-08-02T11:56:52;1.50;;;1.40;;
12224;SDS011;6175;50.956;11.064;2022-08-02T11:59:20;1.67;;;1.58;;
12224;SDS011;6175;50.956;11.064;2022-08-02T12:01:47;1.83;;;1.55;;
12224;SDS011;6175;50.956;11.064;2022-08-02T12:04:15;1.75;;;1.42;;
12224;SDS011;6175;50.956;11.064;2022-08-02T12:06:54;1.67;;;1.58;;
12224;SDS011;6175;50.956;11.064;2022-08-02T12:09:22;1.80;;;1.65;;
12224;SDS011;6175;50.956;11.064;2022-08-02T12:11:51;1.50;;;1.40;;
12224;SDS011;6175;50.956;11.064;2022-08-02T12:14:18;1.90;;;1.75;;
12224;SDS011;6175;50.956;11.064;2022-08-02T12:16:45;1.98;;;1.70;;
12224;SDS011;6175;50.956;11.064;2022-08-02T12:19:31;1.40;;;1.30;;
12224;SDS011;6175;50.956;11.064;2022-08-02T12:22:06;1.58;;;1.48;;
12224;SDS011;6175;50.956;11.064;2022-08-02T12:24:34;1.60;;;1.50;;
12224;SDS011;6175;50.956;11.064;2022-08-02T12:27:03;1.55;;;1.45;;
12224;SDS011;6175;50.956;11.064;2022-08-02T12:29:31;1.50;;;1.40;;
12224;SDS011;6175;50.956;11.064;2022-08-02T12:31:59;1.52;;;1.42;;
12224;SDS011;6175;50.956;11.064;2022-08-02T12:34:28;1.83;;;1.55;;
12224;SDS011;6175;50.956;11.064;2022-08-02T12:36:57;2.33;;;1.38;;
12224;SDS011;6175;50.956;11.064;2022-08-02T12:39:37;1.80;;;1.70;;
12224;SDS011;6175;50.956;11.064;2022-08-02T12:42:06;1.63;;;1.52;;
12224;SDS011;6175;50.956;11.064;2022-08-02T12:44:35;1.50;;;1.40;;
12224;SDS011;6175;50.956;11.064;2022-08-02T12:47:04;1.40;;;1.30;;
12224;SDS011;6175;50.956;11.064;2022-08-02T12:49:33;1.30;;;1.20;;
12224;SDS011;6175;50.956;11.064;2022-08-02T12:52:01;1.65;;;1.30;;
12224;SDS011;6175;50.956;11.064;2022-08-02T12:54:29;1.50;;;1.40;;
12224;SDS011;6175;50.956;11.064;2022-08-02T12:57:11;1.67;;;1.58;;
12224;SDS011;6175;50.956;11.064;2022-08-02T12:59:40;1.90;;;1.65;;
12224;SDS011;6175;50.956;11.064;2022-08-02T13:02:10;1.77;;;1.67;;
12224;SDS011;6175;50.956;11.064;2022-08-02T13:04:38;1.30;;;1.13;;
12224;SDS011;6175;50.956;11.064;2022-08-02T13:07:05;1.40;;;1.30;;
12224;SDS011;6175;50.956;11.064;2022-08-02T13:09:36;1.77;;;1.40;;
12224;SDS011;6175;50.956;11.064;2022-08-02T13:12:04;2.33;;;1.50;;
12224;SDS011;6175;50.956;11.064;2022-08-02T13:14:34;2.65;;;1.27;;
12224;SDS011;6175;50.956;11.064;2022-08-02T13:17:01;1.50;;;1.40;;
12224;SDS011;6175;50.956;11.064;2022-08-02T13:19:28;1.85;;;1.20;;
12224;SDS011;6175;50.956;11.064;2022-08-02T13:21:55;1.08;;;1.08;;
12224;SDS011;6175;50.956;11.064;2022-08-02T13:24:22;1.30;;;1.20;;
12224;SDS011;6175;50.956;11.064;2022-08-02T13:26:49;1.08;;;1.08;;
12224;SDS011;6175;50.956;11.064;2022-08-02T13:29:16;1.30;;;1.20;;
12224;SDS011;6175;50.956;11.064;2022-08-02T13:31:45;1.20;;;1.10;;
12224;SDS011;6175;50.956;11.064;2022-08-02T13:34:12;1.40;;;1.10;;
12224;SDS011;6175;50.956;11.064;2022-08-02T13:36:40;1.77;;;1.33;;
12224;SDS011;6175;50.956;11.064;2022-08-02T13:39:07;1.10;;;1.10;;
12224;SDS011;6175;50.956;11.064;2022-08-02T13:41:35;1.05;;;1.05;;
12224;SDS011;6175;50.956;11.064;2022-08-02T13:44:03;0.93;;;0.93;;
12224;SDS011;6175;50.956;11.064;2022-08-02T13:46:31;1.00;;;1.00;;
12224;SDS011;6175;50.956;11.064;2022-08-02T13:49:00;1.08;;;1.08;;
12224;SDS011;6175;50.956;11.064;2022-08-02T13:51:27;1.40;;;1.30;;
12224;SDS011;6175;50.956;11.064;2022-08-02T13:53:54;1.38;;;1.27;;
12224;SDS011;6175;50.956;11.064;2022-08-02T13:56:21;1.30;;;1.20;;
12224;SDS011;6175;50.956;11.064;2022-08-02T13:58:49;1.30;;;1.20;;
12224;SDS011;6175;50.956;11.064;2022-08-02T14:01:16;1.83;;;1.20;;
12224;SDS011;6175;50.956;11.064;2022-08-02T14:03:43;1.40;;;1.30;;
12224;SDS011;6175;50.956;11.064;2022-08-02T14:06:12;1.45;;;1.35;;
12224;SDS011;6175;50.956;11.064;2022-08-02T14:08:39;1.38;;;1.27;;
12224;SDS011;6175;50.956;11.064;2022-08-02T14:11:06;1.50;;;1.30;;
12224;SDS011;6175;50.956;11.064;2022-08-02T14:13:33;2.10;;;1.40;;
12224;SDS011;6175;50.956;11.064;2022-08-02T14:16:00;1.10;;;1.10;;
12224;SDS011;6175;50.956;11.064;2022-08-02T14:18:28;1.30;;;1.20;;
12224;SDS011;6175;50.956;11.064;2022-08-02T14:20:55;1.13;;;1.08;;
12224;SDS011;6175;50.956;11.064;2022-08-02T14:23:24;1.25;;;1.15;;
12224;SDS011;6175;50.956;11.064;2022-08-02T14:25:54;1.08;;;1.08;;
12224;SDS011;6175;50.956;11.064;2022-08-02T14:28:21;1.13;;;1.00;;
12224;SDS011;6175;50.956;11.064;2022-08-02T14:30:49;2.05;;;1.05;;
12224;SDS011;6175;50.956;11.064;2022-08-02T14:33:16;1.20;;;1.10;;
12224;SDS011;6175;50.956;11.064;2022-08-02T14:35:44;1.48;;;1.10;;
12224;SDS011;6175;50.956;11.064;2022-08-02T14:38:11;1.02;;;1.02;;
12224;SDS011;6175;50.956;11.064;2022-08-02T14:40:39;1.02;;;1.00;;
12224;SDS011;6175;50.956;11.064;2022-08-02T14:43:06;1.10;;;1.10;;
12224;SDS011;6175;50.956;11.064;2022-08-02T14:45:33;0.90;;;0.90;;
12224;SDS011;6175;50.956;11.064;2022-08-02T14:48:00;0.95;;;0.95;;
12224;SDS011;6175;50.956;11.064;2022-08-02T14:50:27;0.90;;;0.90;;
12224;SDS011;6175;50.956;11.064;2022-08-02T14:52:54;1.00;;;1.00;;
12224;SDS011;6175;50.956;11.064;2022-08-02T14:55:21;1.08;;;1.08;;
12224;SDS011;6175;50.956;11.064;2022-08-02T14:57:49;1.20;;;1.10;;
12224;SDS011;6175;50.956;11.064;2022-08-02T15:00:16;1.00;;;1.00;;
12224;SDS011;6175;50.956;11.064;2022-08-02T15:02:43;1.05;;;0.98;;
12224;SDS011;6175;50.956;11.064;2022-08-02T15:05:11;1.23;;;1.13;;
12224;SDS011;6175;50.956;11.064;2022-08-02T15:07:39;2.13;;;1.10;;
12224;SDS011;6175;50.956;11.064;2022-08-02T15:10:06;1.20;;;1.10;;